createdAt,value
2023-04-06T00:01:37.643Z,77.9
2023-04-06T00:07:27.453Z,76.5
2023-04-06T00:13:18.365Z,76.1
2023-04-06T00:19:08.585Z,76.9
2023-04-06T00:24:58.700Z,78.5
2023-04-06T00:30:49.530Z,76.6
2023-04-06T00:36:41.319Z,76.5
2023-04-06T00:42:30.394Z,76.1
2023-04-06T00:48:20.407Z,76.1
2023-04-06T00:54:09.800Z,77.6
2023-04-06T01:00:00.009Z,77.5
2023-04-06T01:05:50.349Z,77.6
2023-04-06T01:11:40.703Z,77.9
2023-04-06T01:17:31.927Z,78.9
2023-04-06T01:23:23.087Z,78.4
2023-04-06T01:29:15.269Z,77.5
2023-04-06T01:35:06.853Z,76.5
2023-04-06T01:40:57.685Z,77.4
2023-04-06T01:46:49.270Z,77.7
2023-04-06T01:52:41.967Z,77
2023-04-06T01:58:33.453Z,74.9
2023-04-06T02:04:25.241Z,74.9
2023-04-06T02:10:15.163Z,73.7
2023-04-06T02:16:07.206Z,74.4
2023-04-06T02:21:59.591Z,76.6
2023-04-06T02:27:51.431Z,78
2023-04-06T02:33:42.641Z,78.3
2023-04-06T02:39:33.904Z,78.2
2023-04-06T02:45:26.787Z,78.5
2023-04-06T02:51:19.995Z,79.2
2023-04-06T02:57:11.114Z,78.7
2023-04-06T03:03:04.821Z,77.5
2023-04-06T03:08:57.838Z,77.1
2023-04-06T03:14:49.108Z,78.5
2023-04-06T03:20:40.886Z,78.4
2023-04-06T03:26:32.705Z,78.3
2023-04-06T03:32:25.641Z,78.7
2023-04-06T03:38:16.635Z,79.3
2023-04-06T03:44:08.147Z,78.4
2023-04-06T03:50:00.025Z,79.5
2023-04-06T03:55:51.654Z,78.7
2023-04-06T04:01:46.634Z,79.8
2023-04-06T04:07:40.046Z,79.8
2023-04-06T04:13:32.022Z,79.8
2023-04-06T04:19:25.717Z,78.7
2023-04-06T04:25:17.443Z,80
2023-04-06T04:31:08.717Z,79.8
2023-04-06T04:36:59.380Z,80
2023-04-06T04:42:52.634Z,79.1
2023-04-06T04:48:44.337Z,78.9
2023-04-06T04:54:34.996Z,77.7
2023-04-06T05:00:26.740Z,77.5
2023-04-06T05:06:22.716Z,77.3
2023-04-06T05:12:14.503Z,77.2
2023-04-06T05:18:08.255Z,78.3
2023-04-06T05:24:00.862Z,77
2023-04-06T05:29:52.872Z,77.4
2023-04-06T05:35:48.184Z,76.9
2023-04-06T05:41:39.175Z,76.8
2023-04-06T05:47:33.429Z,76.1
2023-04-06T05:53:25.493Z,76
2023-04-06T05:59:18.025Z,75.9
2023-04-06T06:05:10.284Z,75.1
2023-04-06T06:11:02.389Z,74.9
2023-04-06T06:16:53.395Z,73.8
2023-04-06T06:22:45.004Z,74.2
2023-04-06T06:28:36.235Z,74.4
2023-04-06T06:34:29.583Z,73.7
2023-04-06T06:40:20.083Z,73.6
2023-04-06T06:46:11.242Z,72.8
2023-04-06T06:52:06.632Z,72.2
2023-04-06T06:57:55.108Z,71
2023-04-06T07:03:51.402Z,70.4
2023-04-06T07:09:43.314Z,69.6
2023-04-06T07:15:36.617Z,69.4
2023-04-06T07:21:27.624Z,68.3
2023-04-06T07:27:23.974Z,67.8
2023-04-06T07:33:16.155Z,66.9
2023-04-06T07:39:10.576Z,66.6
2023-04-06T07:45:01.147Z,65.4
2023-04-06T07:50:53.634Z,64.9
2023-04-06T07:56:44.580Z,63.6
2023-04-06T08:02:39.876Z,63.5
2023-04-06T08:08:31.474Z,60.8
2023-04-06T08:14:24.681Z,62.2
2023-04-06T08:20:16.899Z,61.1
2023-04-06T08:26:14.136Z,60.5
2023-04-06T08:33:15.025Z,61.1
2023-04-06T08:39:06.689Z,59.5
2023-04-06T08:44:58.694Z,58.7
2023-04-06T08:50:52.443Z,59.4
2023-04-06T08:56:46.491Z,59
2023-04-06T09:02:37.738Z,58.6
2023-04-06T09:08:32.175Z,58.6
2023-04-06T09:14:24.388Z,57.8
2023-04-06T09:20:18.517Z,57.6
2023-04-06T09:26:11.344Z,56.8
2023-04-06T09:32:03.311Z,56
2023-04-06T09:37:57.462Z,56
2023-04-06T09:43:51.493Z,55.9
2023-04-06T09:49:59.892Z,55.8
2023-04-06T09:55:52.496Z,54.8
2023-04-06T10:01:44.918Z,54.3
2023-04-06T10:07:49.677Z,51.5
2023-04-06T10:14:08.267Z,51.6
2023-04-06T10:20:01.060Z,49.2
2023-04-06T10:25:51.426Z,47.4
2023-04-06T10:31:45.809Z,46.6
2023-04-06T10:37:37.851Z,46.7
2023-04-06T10:43:33.807Z,45
2023-04-06T10:49:28.479Z,44.7
2023-04-06T10:55:21.973Z,44.7
2023-04-06T11:01:17.559Z,44.9
2023-04-06T11:07:29.904Z,44.5
2023-04-06T11:13:21.363Z,44.4
2023-04-06T11:19:14.346Z,43.2
2023-04-06T11:25:05.554Z,44
2023-04-06T11:30:59.341Z,43.9
2023-04-06T11:36:59.936Z,43.5
2023-04-06T11:42:49.670Z,43.9
2023-04-06T11:48:41.812Z,43
2023-04-06T11:54:31.205Z,43.4
2023-04-06T12:00:24.808Z,43.4
2023-04-06T12:06:29.516Z,42.1
2023-04-06T12:12:23.000Z,42.2
2023-04-06T12:18:17.218Z,43.2
2023-04-06T12:24:12.349Z,42.4
2023-04-06T12:30:07.696Z,42
2023-04-06T12:36:01.555Z,42
2023-04-06T12:41:53.616Z,42.4
2023-04-06T12:47:54.776Z,42.7
2023-04-06T12:53:48.765Z,42.3
2023-04-06T12:59:42.718Z,42.3
2023-04-06T13:05:37.001Z,42.3
2023-04-06T13:11:32.180Z,43.4
2023-04-06T13:17:26.344Z,44.3
2023-04-06T13:23:40.197Z,44.3
2023-04-06T13:29:36.524Z,45.2
2023-04-06T13:35:33.014Z,45.9
2023-04-06T13:41:26.213Z,45.2
2023-04-06T13:47:27.851Z,46.1
2023-04-06T13:53:20.749Z,46.8
2023-04-06T13:59:18.254Z,47.6
2023-04-06T14:11:23.478Z,48
2023-04-06T14:17:24.213Z,48.6
2023-04-06T14:29:58.205Z,51.4
2023-04-06T14:35:49.186Z,53.4
2023-04-06T14:41:40.281Z,54.6
2023-04-06T14:47:39.250Z,55.1
2023-04-06T14:53:36.839Z,57.4
2023-04-06T14:59:42.422Z,58.5
2023-04-06T15:11:55.667Z,61
2023-04-06T15:18:10.530Z,61.3
2023-04-06T15:24:09.289Z,60.5
2023-04-06T15:30:00.134Z,61.2
2023-04-06T15:35:52.491Z,64.1
2023-04-06T15:41:42.817Z,67.4
2023-04-06T15:47:32.266Z,68.9
2023-04-06T15:53:22.298Z,71.6
2023-04-06T15:59:14.750Z,74
2023-04-06T16:05:05.214Z,77
2023-04-06T16:10:55.663Z,79.2
2023-04-06T16:16:48.646Z,79.3
2023-04-06T16:22:41.603Z,82.1
2023-04-06T16:28:32.843Z,82
2023-04-06T16:34:23.593Z,84.7
2023-04-06T16:40:14.912Z,85.3
2023-04-06T16:46:06.961Z,86.7
2023-04-06T16:51:59.132Z,87.8
2023-04-06T16:57:49.452Z,89.4
2023-04-06T17:03:41.078Z,90.7
2023-04-06T17:09:35.042Z,91.7
2023-04-06T17:15:27.637Z,93.5
2023-04-06T17:21:19.641Z,94.1
2023-04-06T17:27:12.104Z,94.7
2023-04-06T17:33:03.433Z,95
2023-04-06T17:38:56.267Z,96.4
2023-04-06T17:44:50.421Z,97.3
2023-04-06T17:50:43.420Z,98.4
2023-04-06T17:56:35.150Z,99.7
2023-04-06T18:02:28.332Z,100
2023-04-06T18:08:19.968Z,100
2023-04-06T18:14:13.221Z,100
2023-04-06T18:20:06.063Z,100
2023-04-06T18:26:01.819Z,100
2023-04-06T18:31:55.384Z,100
2023-04-06T18:37:48.456Z,100
2023-04-06T18:43:41.212Z,100
2023-04-06T18:49:35.261Z,100
2023-04-06T18:55:27.051Z,100
2023-04-06T19:01:19.795Z,100
2023-04-06T19:07:12.650Z,100
2023-04-06T19:13:10.633Z,100
2023-04-06T19:19:02.427Z,100
2023-04-06T19:24:55.342Z,100
2023-04-06T19:30:50.260Z,100
2023-04-06T19:36:42.865Z,100
2023-04-06T19:43:44.751Z,100
2023-04-06T19:49:35.504Z,100
2023-04-06T19:55:26.113Z,100
2023-04-06T20:01:19.388Z,100
2023-04-06T20:07:11.015Z,100
2023-04-06T20:13:02.368Z,100
2023-04-06T20:18:54.085Z,100
2023-04-06T20:24:45.054Z,100
2023-04-06T20:30:37.896Z,100
2023-04-06T20:36:29.341Z,100
2023-04-06T20:42:21.000Z,100
2023-04-06T20:48:12.101Z,100
2023-04-06T20:54:04.445Z,100
2023-04-06T20:59:55.977Z,100
2023-04-06T21:05:47.427Z,100
2023-04-06T21:11:38.256Z,100
2023-04-06T21:17:30.585Z,100
2023-04-06T21:23:21.647Z,100
2023-04-06T21:29:13.124Z,100
2023-04-06T21:35:04.880Z,100
2023-04-06T21:40:58.199Z,100
2023-04-06T21:46:50.101Z,100
2023-04-06T21:52:41.939Z,100
2023-04-06T21:58:33.539Z,100
2023-04-06T22:04:25.766Z,100
2023-04-06T22:10:18.180Z,100
2023-04-06T22:16:11.786Z,100
2023-04-06T22:22:02.134Z,100
2023-04-06T22:27:53.939Z,100
2023-04-06T22:33:45.800Z,100
2023-04-06T22:39:36.257Z,100
2023-04-06T22:45:30.097Z,100
2023-04-06T22:51:22.845Z,100
2023-04-06T22:57:15.484Z,100
2023-04-06T23:03:06.795Z,100
2023-04-06T23:08:59.678Z,100
2023-04-06T23:14:52.289Z,100
2023-04-06T23:20:43.951Z,100
2023-04-06T23:26:35.727Z,100
2023-04-06T23:32:27.787Z,100
2023-04-06T23:38:21.004Z,100
2023-04-06T23:44:12.371Z,100
2023-04-06T23:50:04.404Z,100
2023-04-06T23:55:56.353Z,100
